KCPS/CPS METAR and TAF weather

Enter ICAO airport designator
Station Type Date Time Source
KCPS METAR 2019/10/12 06:53 UTC NOAA

KCPS 120653Z AUTO 21003KT 10SM CLR 03/01 A3021 RMK AO2 SLP231 T00280011


Station Type Date Time Source
KCPS Decoded METAR 2019/10/12 06:53 UTC NOAA

ST LOUIS DOWNTOWN AIRPORT, IL, United States (KCPS) 38-34N 090-09W 126M
Oct 12, 2019 - 02:53 AM EDT / 2019.10.12 0653 UTC
Wind: from the SSW (210 degrees) at 3 MPH (3 KT):0
Visibility: 10 mile(s):0
Sky conditions: clear
Temperature: 37.0 F (2.8 C)
Dew Point: 34.0 F (1.1 C)
Relative Humidity: 88%
Pressure (altimeter): 30.21 in. Hg (1023 hPa)
ob: KCPS 120653Z AUTO 21003KT 10SM CLR 03/01 A3021 RMK AO2 SLP231 T00280011
cycle: 7

Station Type Date Time Source
KCPS TAF 2019/10/18 06:22 UTC NOAA

TAF KCPS 180520Z 1806/1906 VRB04KT P6SM SKC
FM181100 14006KT P6SM FEW250
FM181900 14012G18KT P6SM SCT250
FM182300 14009KT P6SM SCT200

Example: see airport list